createdAt,value
2022-07-25T00:01:08.254Z,100619.31
2022-07-25T00:03:39.189Z,100626.19
2022-07-25T00:06:13.502Z,100626.53
2022-07-25T00:08:45.930Z,100630.34
2022-07-25T00:11:14.187Z,100628.69
2022-07-25T00:13:42.193Z,100623.44
2022-07-25T00:16:10.272Z,100624.38
2022-07-25T00:18:38.574Z,100623.25
2022-07-25T00:21:06.697Z,100622.78
2022-07-25T00:23:34.736Z,100625.56
2022-07-25T00:26:02.874Z,100615.09
2022-07-25T00:28:30.775Z,100616.03
2022-07-25T00:30:58.938Z,100611.91
2022-07-25T00:33:27.314Z,100609.13
2022-07-25T00:35:55.215Z,100612.31
2022-07-25T00:38:23.044Z,100611.97
2022-07-25T00:40:53.517Z,100605.22
2022-07-25T00:43:23.679Z,100602.25
2022-07-25T00:45:51.575Z,100606.81
2022-07-25T00:48:19.764Z,100602.47
2022-07-25T00:50:48.175Z,100607.59
2022-07-25T00:53:16.887Z,100600.72
2022-07-25T00:55:45.413Z,100602.78
2022-07-25T00:58:13.786Z,100595.09
2022-07-25T01:00:41.885Z,100594.31
2022-07-25T01:03:10.228Z,100590.94
2022-07-25T01:05:38.441Z,100593.56
2022-07-25T01:08:08.016Z,100583.16
2022-07-25T01:10:36.750Z,100584.69
2022-07-25T01:13:05.145Z,100585.69
2022-07-25T01:15:33.260Z,100586.81
2022-07-25T01:18:01.459Z,100581.94
2022-07-25T01:20:31.703Z,100594.16
2022-07-25T01:23:00.443Z,100585.34
2022-07-25T01:25:28.934Z,100583.81
2022-07-25T01:27:58.236Z,100580.25
2022-07-25T01:30:26.276Z,100585.19
2022-07-25T01:32:54.463Z,100577.31
2022-07-25T01:35:22.811Z,100589.66
2022-07-25T01:37:50.785Z,100577.19
2022-07-25T01:40:18.832Z,100575.47
2022-07-25T01:42:46.925Z,100580.84
2022-07-25T01:45:15.093Z,100582.06
2022-07-25T01:47:43.316Z,100581.66
2022-07-25T01:50:11.293Z,100582.66
2022-07-25T01:52:39.902Z,100583.47
2022-07-25T01:55:08.774Z,100585.19
2022-07-25T01:57:37.623Z,100574.84
2022-07-25T02:00:11.988Z,100570.06
2022-07-25T02:02:44.473Z,100570.53
2022-07-25T02:05:14.864Z,100573.84
2022-07-25T02:07:43.025Z,100577.44
2022-07-25T02:10:11.023Z,100571.78
2022-07-25T02:12:38.942Z,100567.47
2022-07-25T02:15:11.268Z,100572.00
2022-07-25T02:17:39.204Z,100568.28
2022-07-25T02:20:07.437Z,100567.09
2022-07-25T02:22:35.827Z,100571.03
2022-07-25T02:25:04.333Z,100565.78
2022-07-25T02:27:32.283Z,100572.25
2022-07-25T02:30:00.433Z,100572.00
2022-07-25T02:32:28.394Z,100561.97
2022-07-25T02:34:57.115Z,100558.50
2022-07-25T02:37:25.513Z,100558.00
2022-07-25T02:39:53.453Z,100564.59
2022-07-25T02:42:21.624Z,100567.16
2022-07-25T02:44:49.874Z,100573.06
2022-07-25T02:47:17.906Z,100562.16
2022-07-25T02:49:45.793Z,100566.06
2022-07-25T02:52:13.976Z,100561.13
2022-07-25T02:54:41.833Z,100561.22
2022-07-25T02:57:09.723Z,100563.19
2022-07-25T02:59:37.873Z,100565.31
2022-07-25T03:02:05.823Z,100568.50
2022-07-25T03:04:33.800Z,100566.56
2022-07-25T03:07:01.994Z,100564.66
2022-07-25T03:09:29.934Z,100565.94
2022-07-25T03:11:57.838Z,100569.47
2022-07-25T03:14:26.022Z,100567.28
2022-07-25T03:16:53.951Z,100572.38
2022-07-25T03:19:22.065Z,100573.44
2022-07-25T03:21:50.233Z,100569.78
2022-07-25T03:24:19.333Z,100572.16
2022-07-25T03:26:47.242Z,100577.72
2022-07-25T03:29:15.411Z,100576.00
2022-07-25T03:31:43.315Z,100571.13
2022-07-25T03:34:11.342Z,100579.47
2022-07-25T03:36:39.472Z,100579.03
2022-07-25T03:39:07.397Z,100587.50
2022-07-25T03:41:35.362Z,100584.13
2022-07-25T03:44:04.140Z,100581.72
2022-07-25T03:46:32.635Z,100581.81
2022-07-25T03:49:00.624Z,100587.09
2022-07-25T03:51:28.865Z,100579.41
2022-07-25T03:54:02.403Z,100584.31
2022-07-25T03:56:31.891Z,100583.78
2022-07-25T03:58:59.836Z,100586.00
2022-07-25T04:01:28.030Z,100586.78
2022-07-25T04:03:56.523Z,100591.72
2022-07-25T04:06:25.788Z,100585.25
2022-07-25T04:08:55.313Z,100588.66
2022-07-25T04:11:23.633Z,100582.03
2022-07-25T04:13:51.845Z,100589.03
2022-07-25T04:16:22.394Z,100589.59
2022-07-25T04:18:52.206Z,100579.94
2022-07-25T04:21:20.381Z,100589.31
2022-07-25T04:23:48.996Z,100588.09
2022-07-25T04:26:17.708Z,100591.38
2022-07-25T04:28:45.831Z,100591.00
2022-07-25T04:31:14.643Z,100587.75
2022-07-25T04:33:43.186Z,100590.09
2022-07-25T04:36:11.164Z,100589.75
2022-07-25T04:38:39.338Z,100588.19
2022-07-25T04:41:07.508Z,100587.81
2022-07-25T04:43:35.418Z,100584.94
2022-07-25T04:46:03.740Z,100588.50
2022-07-25T04:48:32.083Z,100593.78
2022-07-25T04:51:00.180Z,100589.25
2022-07-25T04:53:28.311Z,100583.63
2022-07-25T04:55:56.471Z,100579.56
2022-07-25T04:58:24.408Z,100586.13
2022-07-25T05:00:52.374Z,100576.47
2022-07-25T05:03:20.682Z,100574.22
2022-07-25T05:05:48.601Z,100579.16
2022-07-25T05:08:17.059Z,100574.66
2022-07-25T05:10:45.311Z,100573.13
2022-07-25T05:13:13.249Z,100574.91
2022-07-25T05:15:41.220Z,100585.59
2022-07-25T05:18:09.790Z,100589.16
2022-07-25T05:20:37.834Z,100586.00
2022-07-25T05:23:05.827Z,100588.09
2022-07-25T05:25:34.270Z,100585.66
2022-07-25T05:28:03.128Z,100583.25
2022-07-25T05:30:32.074Z,100585.78
2022-07-25T05:33:01.828Z,100591.59
2022-07-25T05:35:29.996Z,100585.31
2022-07-25T05:37:57.848Z,100583.53
2022-07-25T05:40:26.139Z,100588.50
2022-07-25T05:42:55.443Z,100591.84
2022-07-25T05:45:25.179Z,100592.22
2022-07-25T05:47:53.353Z,100586.63
2022-07-25T05:50:21.519Z,100595.25
2022-07-25T05:52:49.472Z,100595.72
2022-07-25T05:55:18.298Z,100592.25
2022-07-25T05:57:46.251Z,100591.22
2022-07-25T06:00:15.119Z,100573.66
2022-07-25T06:02:43.318Z,100581.81
2022-07-25T06:05:11.660Z,100574.44
2022-07-25T06:07:40.049Z,100584.13
2022-07-25T06:10:08.548Z,100577.25
2022-07-25T06:12:36.906Z,100586.13
2022-07-25T06:15:06.518Z,100583.09
2022-07-25T06:17:34.648Z,100582.91
2022-07-25T06:20:02.558Z,100583.38
2022-07-25T06:22:31.298Z,100585.06
2022-07-25T06:24:59.423Z,100583.06
2022-07-25T06:27:29.352Z,100584.16
2022-07-25T06:29:57.594Z,100583.06
2022-07-25T06:32:25.722Z,100576.84
2022-07-25T06:34:53.726Z,100576.44
2022-07-25T06:37:21.665Z,100582.44
2022-07-25T06:39:49.865Z,100584.75
2022-07-25T06:42:17.843Z,100576.00
2022-07-25T06:44:45.836Z,100582.59
2022-07-25T06:47:14.048Z,100586.75
2022-07-25T06:49:42.693Z,100579.19
2022-07-25T06:52:10.813Z,100579.41
2022-07-25T06:54:39.153Z,100584.00
2022-07-25T06:57:07.121Z,100584.75
2022-07-25T06:59:35.035Z,100581.84
2022-07-25T07:02:03.213Z,100581.97
2022-07-25T07:04:31.112Z,100578.31
2022-07-25T07:06:59.005Z,100571.66
2022-07-25T07:09:27.276Z,100569.84
2022-07-25T07:11:55.237Z,100570.47
2022-07-25T07:14:23.445Z,100573.06
2022-07-25T07:16:51.710Z,100570.75
2022-07-25T07:19:20.054Z,100574.44
2022-07-25T07:21:50.246Z,100572.00
2022-07-25T07:24:24.228Z,100556.34
2022-07-25T07:26:54.604Z,100565.41
2022-07-25T07:29:22.816Z,100571.88
2022-07-25T07:31:51.048Z,100565.03
2022-07-25T07:34:19.325Z,100563.22
2022-07-25T07:36:47.781Z,100565.66
2022-07-25T07:39:17.127Z,100558.56
2022-07-25T07:41:46.026Z,100564.41
2022-07-25T07:44:14.917Z,100570.47
2022-07-25T07:46:43.144Z,100560.09
2022-07-25T07:49:11.874Z,100559.38
2022-07-25T07:51:40.987Z,100566.03
2022-07-25T07:54:27.686Z,100563.31
2022-07-25T07:56:56.166Z,100567.50
2022-07-25T07:59:24.330Z,100569.09
2022-07-25T08:01:52.712Z,100556.94
2022-07-25T08:04:21.215Z,100556.31
2022-07-25T08:06:49.329Z,100555.09
2022-07-25T08:09:17.563Z,100552.31
2022-07-25T08:11:45.945Z,100553.97
2022-07-25T08:14:13.967Z,100557.00
2022-07-25T08:16:42.505Z,100557.25
2022-07-25T08:19:13.459Z,100560.25
2022-07-25T08:21:42.144Z,100556.50
2022-07-25T08:24:15.859Z,100556.56
2022-07-25T08:26:44.069Z,100556.84
2022-07-25T08:29:19.090Z,100555.41
2022-07-25T08:31:48.599Z,100555.53
2022-07-25T08:34:17.703Z,100557.44
2022-07-25T08:36:45.853Z,100549.53
2022-07-25T08:39:16.062Z,100553.03
2022-07-25T08:41:44.352Z,100551.78
2022-07-25T08:44:17.704Z,100552.63
2022-07-25T08:46:46.205Z,100543.66
2022-07-25T08:49:14.652Z,100540.28
2022-07-25T08:51:43.633Z,100541.91
2022-07-25T08:54:12.225Z,100543.22
2022-07-25T08:56:42.193Z,100540.75
2022-07-25T08:59:10.724Z,100524.03
2022-07-25T09:01:41.493Z,100537.25
2022-07-25T09:04:10.760Z,100538.59
2022-07-25T09:06:52.643Z,100534.69
2022-07-25T09:09:30.243Z,100535.91
2022-07-25T09:11:59.084Z,100531.78
2022-07-25T09:14:29.893Z,100528.34
2022-07-25T09:16:58.492Z,100537.03
2022-07-25T09:19:26.811Z,100521.25
2022-07-25T09:22:07.262Z,100530.28
2022-07-25T09:24:45.977Z,100528.25
2022-07-25T09:27:15.320Z,100524.81
2022-07-25T09:29:44.435Z,100529.69
2022-07-25T09:32:20.885Z,100525.03
2022-07-25T09:34:50.993Z,100520.47
2022-07-25T09:37:25.366Z,100516.47
2022-07-25T09:39:53.874Z,100516.28
2022-07-25T09:42:33.740Z,100514.53
2022-07-25T09:45:05.833Z,100511.44
2022-07-25T09:47:37.122Z,100516.56
2022-07-25T09:50:07.533Z,100514.13
2022-07-25T09:52:37.161Z,100508.91
2022-07-25T09:55:06.668Z,100509.75
2022-07-25T09:57:34.990Z,100497.03
2022-07-25T10:00:05.233Z,100501.47
2022-07-25T10:02:42.055Z,100501.06
2022-07-25T10:05:14.392Z,100499.59
2022-07-25T10:07:48.607Z,100492.28
2022-07-25T10:10:30.810Z,100503.88
2022-07-25T10:13:29.540Z,100488.03
2022-07-25T10:15:57.669Z,100484.56
2022-07-25T10:18:29.468Z,100486.91
2022-07-25T10:21:25.152Z,100487.28
2022-07-25T10:24:03.017Z,100478.72
2022-07-25T10:26:32.513Z,100470.47
2022-07-25T10:29:02.596Z,100475.81
2022-07-25T10:31:33.376Z,100470.22
2022-07-25T10:34:13.997Z,100467.31
2022-07-25T10:36:44.396Z,100468.53
2022-07-25T10:39:15.734Z,100460.56
2022-07-25T10:41:53.189Z,100458.25
2022-07-25T10:44:22.235Z,100459.31
2022-07-25T10:46:50.781Z,100453.63
2022-07-25T10:49:29.164Z,100444.97
2022-07-25T10:52:04.222Z,100444.31
2022-07-25T10:54:37.786Z,100447.34
2022-07-25T10:57:14.098Z,100441.81
2022-07-25T10:59:42.308Z,100431.72
2022-07-25T11:02:19.569Z,100437.38
2022-07-25T11:05:01.509Z,100416.16
2022-07-25T11:07:36.401Z,100420.81
2022-07-25T11:10:06.140Z,100421.66
2022-07-25T11:12:34.523Z,100419.78
2022-07-25T11:15:05.418Z,100416.25
2022-07-25T11:17:34.872Z,100409.91
2022-07-25T11:20:06.876Z,100406.09
2022-07-25T11:22:43.106Z,100402.72
2022-07-25T11:25:33.543Z,100400.75
2022-07-25T11:28:21.978Z,100394.91
2022-07-25T11:31:39.505Z,100389.03
2022-07-25T11:34:49.345Z,100395.94
2022-07-25T11:37:20.578Z,100391.84
2022-07-25T11:39:49.042Z,100386.06
2022-07-25T11:42:19.880Z,100393.81
2022-07-25T11:44:52.219Z,100386.50
2022-07-25T11:47:34.029Z,100385.22
2022-07-25T11:50:13.519Z,100374.41
2022-07-25T11:53:02.957Z,100377.13
2022-07-25T11:55:33.668Z,100373.16
2022-07-25T11:58:04.601Z,100366.53
2022-07-25T12:00:50.961Z,100363.22
2022-07-25T12:03:23.862Z,100364.97
2022-07-25T12:05:52.486Z,100355.16
2022-07-25T12:08:25.786Z,100358.66
2022-07-25T12:10:56.169Z,100355.88
2022-07-25T12:13:29.306Z,100352.53
2022-07-25T12:15:59.812Z,100348.00
2022-07-25T12:18:28.690Z,100343.47
2022-07-25T12:20:56.791Z,100337.38
2022-07-25T12:23:25.109Z,100339.94
2022-07-25T12:25:53.219Z,100340.16
2022-07-25T12:28:21.430Z,100340.41
2022-07-25T12:30:55.993Z,100335.50
2022-07-25T12:33:25.149Z,100324.88
2022-07-25T12:35:53.564Z,100318.53
2022-07-25T12:38:21.710Z,100318.84
2022-07-25T12:40:49.969Z,100316.06
2022-07-25T12:43:18.697Z,100317.09
2022-07-25T12:45:46.889Z,100308.69
2022-07-25T12:48:16.184Z,100304.34
2022-07-25T12:50:45.714Z,100298.94
2022-07-25T12:53:14.095Z,100293.16
2022-07-25T12:55:42.314Z,100287.50
2022-07-25T12:58:11.054Z,100286.88
2022-07-25T13:00:39.345Z,100283.59
2022-07-25T13:03:07.406Z,100275.84
2022-07-25T13:05:35.880Z,100264.59
2022-07-25T13:08:07.636Z,100267.41
2022-07-25T13:10:35.793Z,100264.59
2022-07-25T13:13:04.164Z,100260.91
2022-07-25T13:15:32.411Z,100263.09
2022-07-25T13:18:02.416Z,100259.38
2022-07-25T13:20:31.620Z,100255.03
2022-07-25T13:22:59.706Z,100258.41
2022-07-25T13:25:27.830Z,100253.31
2022-07-25T13:27:56.159Z,100250.84
2022-07-25T13:30:24.170Z,100238.97
2022-07-25T13:32:53.741Z,100225.81
2022-07-25T13:35:25.773Z,100227.81
2022-07-25T13:37:59.825Z,100225.84
2022-07-25T13:40:28.179Z,100220.25
2022-07-25T13:42:56.490Z,100223.53
2022-07-25T13:45:24.568Z,100220.78
2022-07-25T13:48:12.130Z,100214.34
2022-07-25T13:50:58.256Z,100209.75
2022-07-25T13:53:29.931Z,100204.69
2022-07-25T13:55:59.723Z,100206.91
2022-07-25T13:58:28.833Z,100211.97
2022-07-25T14:00:56.765Z,100210.19
2022-07-25T14:03:24.870Z,100214.47
2022-07-25T14:05:53.103Z,100208.00
2022-07-25T14:08:21.066Z,100211.84
2022-07-25T14:10:48.963Z,100206.31
2022-07-25T14:13:17.133Z,100201.06
2022-07-25T14:15:45.742Z,100205.13
2022-07-25T14:18:13.769Z,100208.06
2022-07-25T14:20:42.351Z,100203.13
2022-07-25T14:23:10.347Z,100197.25
2022-07-25T14:25:38.805Z,100196.00
2022-07-25T14:28:07.046Z,100201.88
2022-07-25T14:30:34.948Z,100187.44
2022-07-25T14:33:02.830Z,100182.09
2022-07-25T14:35:32.686Z,100179.28
2022-07-25T14:38:01.539Z,100178.28
2022-07-25T14:40:29.508Z,100177.78
2022-07-25T14:42:57.691Z,100168.69
2022-07-25T14:45:25.685Z,100165.88
2022-07-25T14:47:54.193Z,100171.69
2022-07-25T14:50:23.624Z,100162.88
2022-07-25T14:52:51.556Z,100169.19
2022-07-25T14:55:21.207Z,100152.91
2022-07-25T14:57:49.426Z,100151.91
2022-07-25T15:00:17.694Z,100160.28
2022-07-25T15:02:45.620Z,100154.16
2022-07-25T15:05:13.849Z,100155.19
2022-07-25T15:07:41.784Z,100145.81
2022-07-25T15:10:10.137Z,100157.25
2022-07-25T15:12:38.343Z,100151.69
2022-07-25T15:15:07.697Z,100155.13
2022-07-25T15:17:35.642Z,100153.47
2022-07-25T15:20:04.737Z,100151.31
2022-07-25T15:22:33.232Z,100161.47
2022-07-25T15:27:50.127Z,100148.94
2022-07-25T15:30:18.074Z,100144.69
2022-07-25T15:32:46.072Z,100138.19
2022-07-25T15:35:14.888Z,100138.13
2022-07-25T15:37:43.196Z,100141.63
2022-07-25T15:40:11.881Z,100135.22
2022-07-25T15:42:40.397Z,100130.22
2022-07-25T15:45:31.941Z,100129.66
2022-07-25T15:47:57.098Z,100128.13
2022-07-25T15:50:24.981Z,100124.13
2022-07-25T15:52:52.945Z,100115.47
2022-07-25T15:55:21.439Z,100113.41
2022-07-25T15:57:49.370Z,100110.97
2022-07-25T16:00:17.305Z,100100.06
2022-07-25T16:02:46.887Z,100095.50
2022-07-25T16:05:15.924Z,100088.66
2022-07-25T16:07:44.706Z,100087.41
2022-07-25T16:10:13.524Z,100088.94
2022-07-25T16:12:41.564Z,100077.31
2022-07-25T16:15:09.885Z,100075.69
2022-07-25T16:17:38.999Z,100072.72
2022-07-25T16:20:09.409Z,100070.69
2022-07-25T16:22:38.102Z,100060.59
2022-07-25T16:25:06.964Z,100068.31
2022-07-25T16:27:35.370Z,100066.41
2022-07-25T16:30:04.399Z,100061.41
2022-07-25T16:32:32.818Z,100068.59
2022-07-25T16:35:00.773Z,100063.31
2022-07-25T16:37:28.641Z,100064.25
2022-07-25T16:39:56.947Z,100053.69
2022-07-25T16:42:25.015Z,100056.31
2022-07-25T16:44:52.932Z,100054.66
2022-07-25T16:47:21.260Z,100045.34
2022-07-25T16:49:49.131Z,100042.25
2022-07-25T16:52:17.109Z,100044.47
2022-07-25T16:54:45.653Z,100049.03
2022-07-25T16:57:15.004Z,100045.97
2022-07-25T16:59:43.587Z,100041.50
2022-07-25T17:02:11.892Z,100043.81
2022-07-25T17:04:39.894Z,100044.06
2022-07-25T17:07:08.115Z,100035.28
2022-07-25T17:09:36.308Z,100032.66
2022-07-25T17:12:04.596Z,100035.72
2022-07-25T17:14:32.566Z,100036.22
2022-07-25T17:17:00.876Z,100028.41
2022-07-25T17:19:28.865Z,100020.38
2022-07-25T17:21:56.807Z,100021.63
2022-07-25T17:24:25.056Z,100010.22
2022-07-25T17:26:52.989Z,100015.34
2022-07-25T17:29:20.949Z,99998.84
2022-07-25T17:31:49.095Z,100009.75
2022-07-25T17:34:17.069Z,100012.28
2022-07-25T17:36:45.058Z,100004.44
2022-07-25T17:39:13.339Z,100003.38
2022-07-25T17:41:41.289Z,99991.25
2022-07-25T17:44:12.042Z,99997.53
2022-07-25T17:46:40.832Z,99993.75
2022-07-25T17:49:08.986Z,99989.44
2022-07-25T17:51:37.227Z,99987.00
2022-07-25T17:54:06.294Z,99987.59
2022-07-25T17:56:34.539Z,99988.25
2022-07-25T17:59:03.219Z,99994.25
2022-07-25T18:01:31.512Z,99988.31
2022-07-25T18:03:59.519Z,99984.28
2022-07-25T18:06:30.010Z,99981.59
2022-07-25T18:08:58.588Z,99980.09
2022-07-25T18:11:26.650Z,99976.94
2022-07-25T18:13:54.659Z,99981.19
2022-07-25T18:16:23.350Z,99979.41
2022-07-25T18:18:51.400Z,99973.97
2022-07-25T18:21:19.298Z,99986.63
2022-07-25T18:23:47.626Z,99978.06
2022-07-25T18:26:15.688Z,99984.50
2022-07-25T18:28:44.486Z,99983.28
2022-07-25T18:31:12.968Z,99999.53
2022-07-25T18:33:41.228Z,100015.16
2022-07-25T18:36:09.441Z,100025.75
2022-07-25T18:38:37.937Z,100023.28
2022-07-25T18:41:27.917Z,100033.16
2022-07-25T18:43:56.647Z,100043.38
2022-07-25T18:46:25.370Z,100048.94
2022-07-25T18:48:53.800Z,100055.81
2022-07-25T18:51:22.428Z,100059.56
2022-07-25T18:53:50.411Z,100051.81
2022-07-25T18:56:18.548Z,100039.34
2022-07-25T18:58:46.858Z,100050.91
2022-07-25T19:01:14.864Z,100058.63
2022-07-25T19:03:43.028Z,100056.88
2022-07-25T19:06:11.931Z,100060.50
2022-07-25T19:08:39.970Z,100060.22
2022-07-25T19:11:09.009Z,100050.66
2022-07-25T19:13:51.334Z,100061.44
2022-07-25T19:16:20.438Z,100069.69
2022-07-25T19:18:49.487Z,100070.31
2022-07-25T19:21:17.577Z,100063.91
2022-07-25T19:23:50.451Z,100066.16
2022-07-25T19:26:21.399Z,100071.69
2022-07-25T19:28:50.629Z,100073.50
2022-07-25T19:31:19.253Z,100084.69
2022-07-25T19:33:47.631Z,100083.97
2022-07-25T19:36:15.730Z,100095.31
2022-07-25T19:38:43.738Z,100092.28
2022-07-25T19:41:12.271Z,100087.03
2022-07-25T19:43:40.312Z,100094.66
2022-07-25T19:46:08.420Z,100094.16
2022-07-25T19:48:36.702Z,100087.78
2022-07-25T19:51:04.888Z,100079.97
2022-07-25T19:53:32.981Z,100078.19
2022-07-25T19:56:01.919Z,100073.13
2022-07-25T19:58:31.479Z,100075.63
2022-07-25T20:01:01.245Z,100081.44
2022-07-25T20:03:29.638Z,100082.44
2022-07-25T20:05:57.650Z,100087.47
2022-07-25T20:08:25.608Z,100089.59
2022-07-25T20:10:53.878Z,100088.34
2022-07-25T20:13:21.819Z,100098.94
2022-07-25T20:15:49.788Z,100094.81
2022-07-25T20:18:19.692Z,100098.84
2022-07-25T20:20:48.473Z,100113.19
2022-07-25T20:23:16.657Z,100120.31
2022-07-25T20:25:44.987Z,100115.25
2022-07-25T20:28:13.019Z,100114.16
2022-07-25T20:30:41.104Z,100108.91
2022-07-25T20:33:09.924Z,100111.09
2022-07-25T20:35:38.979Z,100115.06
2022-07-25T20:38:10.073Z,100129.25
2022-07-25T20:40:48.209Z,100132.28
2022-07-25T20:43:19.020Z,100142.44
2022-07-25T20:45:47.787Z,100141.03
2022-07-25T20:48:16.181Z,100143.16
2022-07-25T20:50:45.247Z,100146.22
2022-07-25T20:53:13.510Z,100147.06
2022-07-25T20:55:41.659Z,100144.75
2022-07-25T20:58:09.678Z,100146.81
2022-07-25T21:00:37.980Z,100153.19
2022-07-25T21:03:08.215Z,100158.88
2022-07-25T21:05:42.349Z,100156.41
2022-07-25T21:08:13.288Z,100202.56
2022-07-25T21:10:41.338Z,100257.13
2022-07-25T21:13:09.282Z,100265.75
2022-07-25T21:15:37.752Z,100285.28
2022-07-25T21:18:05.872Z,100275.03
2022-07-25T21:20:34.010Z,100264.47
2022-07-25T21:23:02.339Z,100251.72
2022-07-25T21:25:30.369Z,100239.97
2022-07-25T21:27:58.350Z,100254.50
2022-07-25T21:30:26.689Z,100231.00
2022-07-25T21:32:54.777Z,100222.00
2022-07-25T21:35:22.893Z,100227.41
2022-07-25T21:37:51.170Z,100242.72
2022-07-25T21:40:19.191Z,100232.59
2022-07-25T21:42:47.260Z,100244.69
2022-07-25T21:45:16.339Z,100212.38
2022-07-25T21:47:44.623Z,100214.53
2022-07-25T21:50:30.990Z,100197.69
2022-07-25T21:52:59.860Z,100197.06
2022-07-25T21:55:27.894Z,100197.69
2022-07-25T21:57:55.870Z,100195.19
2022-07-25T22:00:24.150Z,100201.34
2022-07-25T22:02:52.477Z,100219.25
2022-07-25T22:05:21.109Z,100238.56
2022-07-25T22:07:50.041Z,100243.22
2022-07-25T22:10:19.919Z,100253.44
2022-07-25T22:12:48.901Z,100266.63
2022-07-25T22:15:17.580Z,100264.81
2022-07-25T22:17:48.233Z,100262.03
2022-07-25T22:20:19.802Z,100272.59
2022-07-25T22:22:48.881Z,100282.84
2022-07-25T22:25:18.369Z,100280.41
2022-07-25T22:27:46.499Z,100268.44
2022-07-25T22:30:19.244Z,100227.81
2022-07-25T22:32:48.996Z,100185.44
2022-07-25T22:35:17.989Z,100135.34
2022-07-25T22:37:46.419Z,100096.31
2022-07-25T22:40:15.113Z,100051.16
2022-07-25T22:42:43.121Z,100013.09
2022-07-25T22:45:11.449Z,99987.34
2022-07-25T22:47:39.632Z,99978.78
2022-07-25T22:50:08.519Z,99991.78
2022-07-25T22:52:36.668Z,99993.78
2022-07-25T22:55:05.269Z,99990.56
2022-07-25T22:57:33.677Z,99997.63
2022-07-25T23:00:12.232Z,99993.50
2022-07-25T23:02:40.736Z,99993.66
2022-07-25T23:05:09.649Z,100007.25
2022-07-25T23:07:38.209Z,100001.59
2022-07-25T23:10:07.201Z,100005.28
2022-07-25T23:12:35.678Z,100005.44
2022-07-25T23:15:04.889Z,100018.28
2022-07-25T23:17:33.103Z,100041.41
2022-07-25T23:20:01.107Z,100049.91
2022-07-25T23:22:30.326Z,100054.63
2022-07-25T23:24:59.144Z,100050.53
2022-07-25T23:27:27.544Z,100047.66
2022-07-25T23:29:55.905Z,100038.09
2022-07-25T23:32:24.165Z,100041.63
2022-07-25T23:34:52.074Z,100052.47
2022-07-25T23:37:19.993Z,100060.88
2022-07-25T23:39:48.127Z,100058.38
2022-07-25T23:42:16.046Z,100058.06
2022-07-25T23:44:44.527Z,100051.31
2022-07-25T23:47:12.942Z,100051.44
2022-07-25T23:49:41.152Z,100049.50
2022-07-25T23:52:09.403Z,100070.69
2022-07-25T23:54:38.836Z,100078.28
2022-07-25T23:57:08.504Z,100082.19
2022-07-25T23:59:36.527Z,100073.25
